createdAt,value
2023-12-11T00:01:11.302Z,98062.24
2023-12-11T00:04:00.102Z,98057.27
2023-12-11T00:06:48.702Z,98056.54
2023-12-11T00:09:37.635Z,98049.54
2023-12-11T00:12:26.399Z,98050.23
2023-12-11T00:15:14.985Z,98053.12
2023-12-11T00:18:03.757Z,98049.95
2023-12-11T00:20:54.725Z,98044.92
2023-12-11T00:23:43.518Z,98039.25
2023-12-11T00:26:32.042Z,98038.15
2023-12-11T00:29:20.612Z,98041.77
2023-12-11T00:32:09.718Z,98042.02
2023-12-11T00:34:58.459Z,98039.98
2023-12-11T00:37:47.294Z,98042.51
2023-12-11T00:40:35.777Z,98045.64
2023-12-11T00:43:24.341Z,98045.03
2023-12-11T00:46:15.922Z,98038.73
2023-12-11T00:49:04.700Z,98025.77
2023-12-11T00:51:56.158Z,98015.77
2023-12-11T00:54:44.959Z,98014.58
2023-12-11T00:57:33.809Z,98009.61
2023-12-11T01:00:22.576Z,98001.82
2023-12-11T01:03:11.327Z,97995.77
2023-12-11T01:06:00.586Z,98002.52
2023-12-11T01:08:49.242Z,97996.52
2023-12-11T01:11:37.824Z,98007.10
2023-12-11T01:14:26.384Z,98015.40
2023-12-11T01:17:37.150Z,98017.09
2023-12-11T01:20:23.513Z,98016.36
2023-12-11T01:23:12.174Z,98009.98
2023-12-11T01:26:03.404Z,98000.54
2023-12-11T01:28:52.997Z,97999.36
2023-12-11T01:31:41.516Z,97989.01
2023-12-11T01:34:30.139Z,97982.80
2023-12-11T01:37:19.690Z,97965.52
2023-12-11T01:40:09.237Z,97967.23
2023-12-11T01:43:18.235Z,97961.30
2023-12-11T01:46:15.132Z,97959.87
2023-12-11T01:49:04.303Z,97945.58
2023-12-11T01:51:53.409Z,97933.16
2023-12-11T01:54:42.516Z,97938.45
2023-12-11T01:57:31.836Z,97931.17
2023-12-11T02:05:26.144Z,97924.52
2023-12-11T02:08:16.371Z,97928.49
2023-12-11T02:11:04.906Z,97925.84
2023-12-11T02:13:53.457Z,97925.27
2023-12-11T02:16:44.504Z,97928.92
2023-12-11T02:19:33.302Z,97922.33
2023-12-11T02:22:22.529Z,97919.98
2023-12-11T02:25:12.230Z,97916.20
2023-12-11T02:28:00.880Z,97911.70
2023-12-11T02:30:52.526Z,97909.76
2023-12-11T02:33:42.507Z,97897.47
2023-12-11T02:36:31.766Z,97887.20
2023-12-11T02:39:20.427Z,97879.13
2023-12-11T02:42:08.955Z,97868.34
2023-12-11T02:44:57.514Z,97859.11
2023-12-11T02:47:46.362Z,97850.85
2023-12-11T02:50:35.647Z,97837.67
2023-12-11T02:53:24.303Z,97827.83
2023-12-11T02:56:13.809Z,97828.00
2023-12-11T02:59:02.785Z,97828.91
2023-12-11T03:01:51.479Z,97822.84
2023-12-11T03:04:40.147Z,97818.60
2023-12-11T03:07:29.128Z,97814.98
2023-12-11T03:10:18.040Z,97815.32
2023-12-11T03:13:06.630Z,97819.68
2023-12-11T03:15:55.297Z,97831.05
2023-12-11T03:18:44.016Z,97825.46
2023-12-11T03:21:32.706Z,97823.23
2023-12-11T03:24:21.351Z,97818.60
2023-12-11T03:27:10.194Z,97815.92
2023-12-11T03:29:58.670Z,97814.59
2023-12-11T03:32:47.246Z,97812.83
2023-12-11T03:35:36.110Z,97807.20
2023-12-11T03:38:24.850Z,97802.42
2023-12-11T03:41:13.450Z,97802.59
2023-12-11T03:44:02.083Z,97801.17
2023-12-11T03:46:50.822Z,97809.30
2023-12-11T03:49:39.728Z,97818.45
2023-12-11T03:52:28.359Z,97815.41
2023-12-11T03:55:17.041Z,97814.73
2023-12-11T03:58:05.709Z,97808.54
2023-12-11T04:00:54.420Z,97808.70
2023-12-11T04:03:43.086Z,97807.12
2023-12-11T04:06:31.890Z,97805.94
2023-12-11T04:09:20.779Z,97802.02
2023-12-11T04:12:09.298Z,97799.56
2023-12-11T04:14:58.113Z,97799.86
2023-12-11T04:17:46.713Z,97798.69
2023-12-11T04:20:35.503Z,97798.30
2023-12-11T04:23:24.660Z,97788.60
2023-12-11T04:26:14.454Z,97790.91
2023-12-11T04:29:05.302Z,97780.63
2023-12-11T04:31:54.109Z,97778.88
2023-12-11T04:34:42.697Z,97774.72
2023-12-11T04:37:31.576Z,97778.35
2023-12-11T04:40:20.350Z,97775.73
2023-12-11T04:43:09.213Z,97769.65
2023-12-11T04:45:57.884Z,97768.19
2023-12-11T04:48:46.747Z,97765.52
2023-12-11T04:51:35.450Z,97761.73
2023-12-11T04:54:24.048Z,97773.68
2023-12-11T04:57:12.727Z,97771.85
2023-12-11T05:00:01.510Z,97753.02
2023-12-11T05:02:50.087Z,97748.88
2023-12-11T05:05:38.712Z,97753.50
2023-12-11T05:08:30.217Z,97751.75
2023-12-11T05:11:19.306Z,97748.59
2023-12-11T05:14:08.132Z,97742.91
2023-12-11T05:16:56.726Z,97741.09
2023-12-11T05:19:45.358Z,97728.10
2023-12-11T05:22:34.009Z,97720.70
2023-12-11T05:25:22.623Z,97713.90
2023-12-11T05:28:14.700Z,97714.71
2023-12-11T05:31:03.492Z,97710.85
2023-12-11T05:33:52.263Z,97703.95
2023-12-11T05:36:40.924Z,97704.48
2023-12-11T05:39:29.578Z,97698.59
2023-12-11T05:42:18.620Z,97701.48
2023-12-11T05:45:07.927Z,97693.50
2023-12-11T05:47:56.724Z,97691.91
2023-12-11T05:50:45.776Z,97689.14
2023-12-11T05:53:34.319Z,97688.94
2023-12-11T05:56:23.099Z,97680.76
2023-12-11T05:59:11.988Z,97679.38
2023-12-11T06:02:00.570Z,97674.09
2023-12-11T06:04:49.169Z,97673.40
2023-12-11T06:07:37.798Z,97667.05
2023-12-11T06:10:26.475Z,97662.62
2023-12-11T06:13:15.143Z,97659.45
2023-12-11T06:16:04.118Z,97660.30
2023-12-11T06:18:53.022Z,97662.41
2023-12-11T06:21:42.372Z,97660.30
2023-12-11T06:24:31.055Z,97656.02
2023-12-11T06:27:19.600Z,97653.84
2023-12-11T06:30:08.775Z,97648.27
2023-12-11T06:32:57.716Z,97635.23
2023-12-11T06:35:46.280Z,97633.85
2023-12-11T06:38:35.469Z,97627.83
2023-12-11T06:41:24.200Z,97628.92
2023-12-11T06:44:14.214Z,97627.11
2023-12-11T06:47:02.786Z,97631.87
2023-12-11T06:49:51.529Z,97632.73
2023-12-11T06:52:40.208Z,97635.55
2023-12-11T06:55:28.995Z,97633.35
2023-12-11T06:58:17.602Z,97634.38
2023-12-11T07:01:10.266Z,97631.20
2023-12-11T07:04:00.932Z,97629.56
2023-12-11T07:06:49.735Z,97631.27
2023-12-11T07:09:38.416Z,97625.53
2023-12-11T07:12:26.993Z,97623.27
2023-12-11T07:15:15.643Z,97622.95
2023-12-11T07:18:04.306Z,97622.24
2023-12-11T07:20:53.146Z,97625.75
2023-12-11T07:23:41.888Z,97627.70
2023-12-11T07:26:30.535Z,97634.38
2023-12-11T07:29:19.120Z,97640.05
2023-12-11T07:32:08.149Z,97637.77
2023-12-11T07:34:59.203Z,97640.20
2023-12-11T07:37:47.899Z,97639.17
2023-12-11T07:40:36.441Z,97637.30
2023-12-11T07:43:25.498Z,97634.04
2023-12-11T07:46:23.118Z,97633.97
2023-12-11T07:49:15.257Z,97633.52
2023-12-11T07:52:04.496Z,97631.59
2023-12-11T07:54:53.114Z,97632.83
2023-12-11T07:57:42.303Z,97633.10
2023-12-11T08:00:31.409Z,97639.78
2023-12-11T08:03:20.549Z,97639.61
2023-12-11T08:06:12.526Z,97636.05
2023-12-11T08:09:01.462Z,97631.02
2023-12-11T08:11:51.024Z,97630.71
2023-12-11T08:14:39.966Z,97631.11
2023-12-11T08:17:28.920Z,97633.21
2023-12-11T08:20:19.302Z,97629.41
2023-12-11T08:23:08.392Z,97627.17
2023-12-11T08:25:57.093Z,97629.92
2023-12-11T08:28:46.796Z,97630.90
2023-12-11T08:31:35.325Z,97629.42
2023-12-11T08:34:23.973Z,97632.46
2023-12-11T08:37:12.956Z,97639.16
2023-12-11T08:40:02.086Z,97635.02
2023-12-11T08:42:50.682Z,97634.93
2023-12-11T08:45:39.863Z,97634.31
2023-12-11T08:48:29.096Z,97635.41
2023-12-11T08:51:19.566Z,97636.38
2023-12-11T08:54:08.226Z,97639.84
2023-12-11T08:56:56.761Z,97634.98
2023-12-11T08:59:45.501Z,97640.73
2023-12-11T09:02:34.123Z,97637.79
2023-12-11T09:05:22.821Z,97640.25
2023-12-11T09:08:11.429Z,97639.89
2023-12-11T09:11:00.019Z,97637.27
2023-12-11T09:13:48.694Z,97634.84
2023-12-11T09:16:37.269Z,97630.32
2023-12-11T09:19:35.838Z,97631.60
2023-12-11T09:22:29.338Z,97624.73
2023-12-11T09:25:18.120Z,97620.56
2023-12-11T09:28:06.728Z,97616.09
2023-12-11T09:30:55.760Z,97614.04
2023-12-11T09:33:44.473Z,97612.98
2023-12-11T09:36:33.215Z,97609.10
2023-12-11T09:39:23.655Z,97608.50
2023-12-11T09:42:14.398Z,97611.02
2023-12-11T09:45:04.596Z,97608.98
2023-12-11T09:48:04.804Z,97611.73
2023-12-11T09:51:01.217Z,97614.20
2023-12-11T09:53:53.115Z,97611.33
2023-12-11T09:56:44.081Z,97610.40
2023-12-11T09:59:32.732Z,97611.11
2023-12-11T10:02:21.420Z,97608.84
2023-12-11T10:05:11.713Z,97604.95
2023-12-11T10:08:02.137Z,97605.34
2023-12-11T10:10:50.767Z,97599.09
2023-12-11T10:13:40.029Z,97605.02
2023-12-11T10:16:33.637Z,97604.00
2023-12-11T10:19:34.945Z,97602.38
2023-12-11T10:22:27.892Z,97606.54
2023-12-11T10:25:28.062Z,97601.13
2023-12-11T10:28:19.127Z,97600.82
2023-12-11T10:31:07.887Z,97594.33
2023-12-11T10:33:56.877Z,97597.15
2023-12-11T10:36:52.777Z,97591.77
2023-12-11T10:39:55.175Z,97587.40
2023-12-11T10:42:44.092Z,97587.49
2023-12-11T10:45:36.140Z,97578.86
2023-12-11T10:48:24.822Z,97583.13
2023-12-11T10:51:14.376Z,97583.28
2023-12-11T10:54:02.956Z,97582.00
2023-12-11T10:56:53.474Z,97577.97
2023-12-11T10:59:42.778Z,97577.25
2023-12-11T11:02:32.360Z,97573.92
2023-12-11T11:05:22.450Z,97573.98
2023-12-11T11:08:41.460Z,97571.98
2023-12-11T11:11:38.544Z,97572.11
2023-12-11T11:14:48.367Z,97573.08
2023-12-11T11:17:59.704Z,97570.48
2023-12-11T11:21:08.189Z,97569.67
2023-12-11T11:23:56.755Z,97564.19
2023-12-11T11:26:45.353Z,97559.57
2023-12-11T11:29:44.846Z,97562.60
2023-12-11T11:32:56.857Z,97551.17
2023-12-11T11:35:54.006Z,97551.23
2023-12-11T11:38:54.504Z,97546.14
2023-12-11T11:41:44.486Z,97542.66
2023-12-11T11:44:33.082Z,97539.70
2023-12-11T11:47:21.992Z,97536.87
2023-12-11T11:50:15.179Z,97539.33
2023-12-11T11:53:12.485Z,97531.58
2023-12-11T11:56:02.767Z,97532.26
2023-12-11T11:58:51.433Z,97528.13
2023-12-11T12:01:57.104Z,97524.73
2023-12-11T12:04:45.807Z,97514.81
2023-12-11T12:07:34.640Z,97508.42
2023-12-11T12:10:23.372Z,97508.09
2023-12-11T12:13:12.156Z,97506.35
2023-12-11T12:16:01.069Z,97501.00
2023-12-11T12:18:51.229Z,97498.81
2023-12-11T12:21:55.506Z,97497.81
2023-12-11T12:24:49.742Z,97494.98
2023-12-11T12:27:38.829Z,97494.80
2023-12-11T12:30:28.827Z,97496.74
2023-12-11T12:33:19.760Z,97493.82
2023-12-11T12:36:08.673Z,97494.23
2023-12-11T12:38:57.561Z,97494.54
2023-12-11T12:41:50.931Z,97500.72
2023-12-11T12:44:41.134Z,97495.77
2023-12-11T12:47:30.419Z,97498.22
2023-12-11T12:50:21.376Z,97496.23
2023-12-11T12:53:15.203Z,97496.60
2023-12-11T12:56:16.603Z,97497.09
2023-12-11T12:59:06.819Z,97495.20
2023-12-11T13:01:55.539Z,97498.82
2023-12-11T13:04:55.447Z,97495.93
2023-12-11T13:07:58.037Z,97498.59
2023-12-11T13:10:57.818Z,97504.35
2023-12-11T13:13:54.766Z,97498.94
2023-12-11T13:16:48.036Z,97501.23
2023-12-11T13:19:37.799Z,97508.19
2023-12-11T13:22:26.991Z,97509.36
2023-12-11T13:25:16.794Z,97504.66
2023-12-11T13:28:05.757Z,97514.15
2023-12-11T13:30:54.396Z,97503.74
2023-12-11T13:33:43.229Z,97504.41
2023-12-11T13:36:32.372Z,97510.97
2023-12-11T13:39:21.239Z,97509.12
2023-12-11T13:42:09.798Z,97512.72
2023-12-11T13:44:59.885Z,97512.21
2023-12-11T13:47:48.814Z,97516.17
2023-12-11T13:50:37.453Z,97521.06
2023-12-11T13:53:26.847Z,97522.63
2023-12-11T13:56:15.524Z,97525.44
2023-12-11T13:59:04.910Z,97520.73
2023-12-11T14:01:53.587Z,97526.08
2023-12-11T14:04:42.820Z,97523.16
2023-12-11T14:07:32.196Z,97523.98
2023-12-11T14:10:21.246Z,97522.80
2023-12-11T14:13:14.608Z,97526.39
2023-12-11T14:16:03.530Z,97528.17
2023-12-11T14:18:52.825Z,97524.09
2023-12-11T14:21:42.481Z,97527.30
2023-12-11T14:24:31.205Z,97534.73
2023-12-11T14:27:20.039Z,97534.20
2023-12-11T14:30:09.185Z,97532.62
2023-12-11T14:32:57.802Z,97530.67
2023-12-11T14:35:47.836Z,97531.31
2023-12-11T14:38:36.484Z,97532.71
2023-12-11T14:41:25.036Z,97532.79
2023-12-11T14:44:14.331Z,97536.55
2023-12-11T14:47:03.048Z,97532.89
2023-12-11T14:49:52.725Z,97537.55
2023-12-11T14:52:41.592Z,97535.38
2023-12-11T14:55:30.285Z,97535.33
2023-12-11T14:58:19.373Z,97536.67
2023-12-11T15:01:08.086Z,97534.36
2023-12-11T15:03:57.028Z,97532.40
2023-12-11T15:06:45.757Z,97532.42
2023-12-11T15:09:35.909Z,97533.18
2023-12-11T15:12:24.749Z,97541.84
2023-12-11T15:15:13.614Z,97539.17
2023-12-11T15:18:02.395Z,97539.66
2023-12-11T15:20:50.968Z,97535.70
2023-12-11T15:23:39.522Z,97538.57
2023-12-11T15:26:28.515Z,97541.16
2023-12-11T15:29:17.062Z,97537.21
2023-12-11T15:32:06.270Z,97529.18
2023-12-11T15:34:55.005Z,97530.73
2023-12-11T15:37:43.867Z,97528.20
2023-12-11T15:40:32.745Z,97526.39
2023-12-11T15:43:21.394Z,97532.06
2023-12-11T15:46:11.327Z,97531.52
2023-12-11T15:49:01.548Z,97531.45
2023-12-11T15:51:52.883Z,97527.92
2023-12-11T15:54:44.504Z,97528.21
2023-12-11T15:57:33.273Z,97525.59
2023-12-11T16:00:22.367Z,97518.11
2023-12-11T16:03:11.086Z,97516.36
2023-12-11T16:06:00.071Z,97516.72
2023-12-11T16:08:48.757Z,97518.25
2023-12-11T16:11:37.445Z,97516.46
2023-12-11T16:14:25.962Z,97515.73
2023-12-11T16:17:14.817Z,97514.92
2023-12-11T16:20:05.455Z,97514.63
2023-12-11T16:22:54.518Z,97511.99
2023-12-11T16:25:51.060Z,97515.02
2023-12-11T16:28:47.952Z,97506.59
2023-12-11T16:31:36.563Z,97510.50
2023-12-11T16:34:25.653Z,97508.20
2023-12-11T16:37:14.528Z,97504.86
2023-12-11T16:40:07.584Z,97508.48
2023-12-11T16:42:56.604Z,97513.83
2023-12-11T16:45:45.922Z,97513.77
2023-12-11T16:48:36.854Z,97507.44
2023-12-11T16:51:25.470Z,97506.52
2023-12-11T16:54:14.072Z,97510.48
2023-12-11T16:57:02.775Z,97512.92
2023-12-11T16:59:51.305Z,97511.73
2023-12-11T17:02:39.926Z,97512.90
2023-12-11T17:05:28.887Z,97518.18
2023-12-11T17:08:17.510Z,97519.83
2023-12-11T17:11:06.102Z,97514.51
2023-12-11T17:13:54.657Z,97507.80
2023-12-11T17:16:43.388Z,97506.76
2023-12-11T17:19:32.114Z,97504.81
2023-12-11T17:22:21.878Z,97499.17
2023-12-11T17:25:10.633Z,97498.20
2023-12-11T17:27:59.299Z,97495.25
2023-12-11T17:30:53.044Z,97488.55
2023-12-11T17:33:42.120Z,97483.39
2023-12-11T17:36:30.709Z,97485.05
2023-12-11T17:39:19.310Z,97474.14
2023-12-11T17:42:08.002Z,97473.70
2023-12-11T17:44:56.787Z,97475.05
2023-12-11T17:47:45.496Z,97474.77
2023-12-11T17:50:34.090Z,97469.64
2023-12-11T17:53:22.697Z,97469.97
2023-12-11T17:56:12.562Z,97468.02
2023-12-11T17:59:01.281Z,97472.82
2023-12-11T18:01:49.917Z,97465.29
2023-12-11T18:04:41.875Z,97466.52
2023-12-11T18:07:30.585Z,97462.04
2023-12-11T18:10:19.904Z,97460.39
2023-12-11T18:13:08.582Z,97459.68
2023-12-11T18:15:57.146Z,97456.91
2023-12-11T18:18:45.868Z,97456.50
2023-12-11T18:21:34.567Z,97457.25
2023-12-11T18:24:23.159Z,97454.30
2023-12-11T18:27:11.685Z,97454.02
2023-12-11T18:30:00.593Z,97452.66
2023-12-11T18:32:49.278Z,97453.86
2023-12-11T18:35:38.202Z,97455.33
2023-12-11T18:38:26.913Z,97458.93
2023-12-11T18:41:27.363Z,97457.77
2023-12-11T18:44:16.044Z,97452.42
2023-12-11T18:47:04.862Z,97451.30
2023-12-11T18:49:53.931Z,97448.58
2023-12-11T18:52:49.468Z,97453.55
2023-12-11T18:55:38.041Z,97459.18
2023-12-11T18:58:29.487Z,97457.89
2023-12-11T19:01:21.820Z,97453.96
2023-12-11T19:04:10.945Z,97456.20
2023-12-11T19:06:59.656Z,97454.64
2023-12-11T19:09:48.587Z,97456.58
2023-12-11T19:12:37.148Z,97456.83
2023-12-11T19:15:26.148Z,97461.35
2023-12-11T19:18:14.926Z,97457.20
2023-12-11T19:21:03.632Z,97454.29
2023-12-11T19:23:52.755Z,97453.98
2023-12-11T19:26:41.806Z,97450.52
2023-12-11T19:29:30.490Z,97455.95
2023-12-11T19:32:20.793Z,97451.23
2023-12-11T19:35:09.476Z,97451.56
2023-12-11T19:37:58.054Z,97456.52
2023-12-11T19:40:46.745Z,97456.96
2023-12-11T19:43:35.565Z,97453.02
2023-12-11T19:46:24.293Z,97457.14
2023-12-11T19:49:13.112Z,97452.81
2023-12-11T19:52:01.794Z,97449.84
2023-12-11T19:54:50.578Z,97449.36
2023-12-11T19:57:39.896Z,97446.25
2023-12-11T20:00:28.665Z,97450.20
2023-12-11T20:03:17.309Z,97448.00
2023-12-11T20:06:06.383Z,97447.29
2023-12-11T20:08:55.304Z,97454.02
2023-12-11T20:11:44.927Z,97448.85
2023-12-11T20:14:34.428Z,97454.19
2023-12-11T20:17:23.183Z,97453.52
2023-12-11T20:20:12.232Z,97452.99
2023-12-11T20:23:00.779Z,97458.06
2023-12-11T20:25:49.288Z,97457.00
2023-12-11T20:28:37.880Z,97464.14
2023-12-11T20:31:27.371Z,97468.20
2023-12-11T20:34:16.466Z,97471.42
2023-12-11T20:37:05.485Z,97474.02
2023-12-11T20:39:54.898Z,97476.45
2023-12-11T20:42:43.774Z,97479.25
2023-12-11T20:45:32.382Z,97481.86
2023-12-11T20:48:21.139Z,97487.56
2023-12-11T20:51:09.835Z,97489.31
2023-12-11T20:53:58.365Z,97491.55
2023-12-11T20:56:46.988Z,97488.25
2023-12-11T20:59:35.554Z,97491.39
2023-12-11T21:02:24.159Z,97492.30
2023-12-11T21:05:12.854Z,97491.34
2023-12-11T21:08:01.883Z,97486.73
2023-12-11T21:10:50.477Z,97483.07
2023-12-11T21:13:39.217Z,97480.48
2023-12-11T21:16:28.194Z,97477.11
2023-12-11T21:19:16.933Z,97469.40
2023-12-11T21:22:05.562Z,97465.52
2023-12-11T21:24:54.386Z,97463.63
2023-12-11T21:27:42.996Z,97461.66
2023-12-11T21:30:31.553Z,97461.02
2023-12-11T21:33:20.871Z,97465.77
2023-12-11T21:36:09.522Z,97464.08
2023-12-11T21:38:59.152Z,97457.05
2023-12-11T21:41:47.714Z,97460.67
2023-12-11T21:44:36.337Z,97456.73
2023-12-11T21:47:25.348Z,97456.35
2023-12-11T21:50:14.606Z,97454.69
2023-12-11T21:53:03.408Z,97454.00
2023-12-11T21:55:51.958Z,97453.30
2023-12-11T21:58:44.091Z,97453.34
2023-12-11T22:01:35.118Z,97452.03
2023-12-11T22:04:23.813Z,97445.39
2023-12-11T22:07:14.851Z,97447.59
2023-12-11T22:10:07.128Z,97453.27
2023-12-11T22:12:55.704Z,97454.19
2023-12-11T22:15:44.315Z,97453.73
2023-12-11T22:18:32.937Z,97451.66
2023-12-11T22:21:25.749Z,97458.23
2023-12-11T22:24:15.623Z,97458.80
2023-12-11T22:27:04.703Z,97459.04
2023-12-11T22:29:53.255Z,97457.89
2023-12-11T22:32:42.015Z,97464.51
2023-12-11T22:35:30.606Z,97465.56
2023-12-11T22:38:19.351Z,97461.02
2023-12-11T22:41:08.002Z,97458.59
2023-12-11T22:43:57.393Z,97457.66
2023-12-11T22:46:46.514Z,97459.52
2023-12-11T22:49:35.196Z,97452.48
2023-12-11T22:52:23.855Z,97456.96
2023-12-11T22:55:12.878Z,97463.33
2023-12-11T22:58:13.457Z,97463.20
2023-12-11T23:01:05.217Z,97461.86
2023-12-11T23:03:54.666Z,97459.77
2023-12-11T23:06:43.271Z,97467.36
2023-12-11T23:09:31.892Z,97465.36
2023-12-11T23:12:20.609Z,97459.08
2023-12-11T23:15:09.786Z,97457.67
2023-12-11T23:17:58.371Z,97460.39
2023-12-11T23:20:47.019Z,97458.32
2023-12-11T23:23:35.590Z,97458.79
2023-12-11T23:26:25.323Z,97456.46
2023-12-11T23:29:14.023Z,97459.34
2023-12-11T23:32:02.641Z,97454.69
2023-12-11T23:34:51.346Z,97456.10
2023-12-11T23:37:40.161Z,97455.98
2023-12-11T23:40:29.052Z,97455.68
2023-12-11T23:43:17.978Z,97459.42
2023-12-11T23:46:06.737Z,97464.00
2023-12-11T23:48:55.521Z,97463.14
2023-12-11T23:51:44.564Z,97464.79
2023-12-11T23:54:33.165Z,97464.56
2023-12-11T23:57:21.754Z,97471.17
